Petersville, Texas
Current Conditions -  °F | °C
As of 7:51 AM on Monday 26 Jan 2015 (Local Time) from KVCT Reporting Station
Clear Clear  
Wind Chill:   Ceiling: Unl
Heat Index:   Visibility: 10mi
Dew Point:   Wind: 9mph
Humidity: 79%   Direction: 330°NNW
Pressure: 30.28"   Gusts: NA
Location:  29.2421°N, 97.0692°W
Report Text: KVCT 261351Z 33008KT 10SM CLR 07/03 A3028 RMK AO2 SLP252 T00670033 $
Loading
Personal Weather Stations






























Interactive Weather Map New forecast layout! Learn more

10-Day Weather Forecast

Advertisements
Track Severe Weather on mobile